sensor_id;sensor_type;location;lat;lon;timestamp;pressure;altitude;pressure_sealevel;temperature;humidity
11053;BME280;55230;42.602;23.470;2023-01-29T00:00:51;93574.59;;;-1.43;100.00
11053;BME280;55230;42.602;23.470;2023-01-29T00:03:18;93571.56;;;-1.45;100.00
11053;BME280;55230;42.602;23.470;2023-01-29T00:05:45;93569.28;;;-1.46;100.00
11053;BME280;55230;42.602;23.470;2023-01-29T00:08:14;93439.09;;;-2.55;100.00
11053;BME280;55230;42.602;23.470;2023-01-29T00:10:41;93450.72;;;-2.16;100.00
11053;BME280;55230;42.602;23.470;2023-01-29T00:13:08;93573.13;;;-1.37;100.00
11053;BME280;55230;42.602;23.470;2023-01-29T00:15:34;93502.16;;;-1.96;100.00
11053;BME280;55230;42.602;23.470;2023-01-29T00:18:01;93574.63;;;-1.39;100.00
11053;BME280;55230;42.602;23.470;2023-01-29T00:20:28;93600.75;;;-1.27;100.00
11053;BME280;55230;42.602;23.470;2023-01-29T00:22:54;93334.78;;;-3.36;100.00
11053;BME280;55230;42.602;23.470;2023-01-29T00:25:23;93505.28;;;-1.80;100.00
11053;BME280;55230;42.602;23.470;2023-01-29T00:27:50;93510.13;;;-1.89;100.00
11053;BME280;55230;42.602;23.470;2023-01-29T00:30:17;93566.19;;;-1.55;100.00
11053;BME280;55230;42.602;23.470;2023-01-29T00:32:45;93368.13;;;-3.14;100.00
11053;BME280;55230;42.602;23.470;2023-01-29T00:35:12;93485.81;;;-2.12;100.00
11053;BME280;55230;42.602;23.470;2023-01-29T00:37:39;93619.25;;;-1.31;100.00
11053;BME280;55230;42.602;23.470;2023-01-29T00:40:06;93504.44;;;-1.91;100.00
11053;BME280;55230;42.602;23.470;2023-01-29T00:42:35;93588.31;;;-1.27;100.00
11053;BME280;55230;42.602;23.470;2023-01-29T00:45:19;93583.78;;;-1.26;100.00
11053;BME280;55230;42.602;23.470;2023-01-29T00:47:46;93585.66;;;-1.27;100.00
11053;BME280;55230;42.602;23.470;2023-01-29T00:50:13;93555.66;;;-1.52;100.00
11053;BME280;55230;42.602;23.470;2023-01-29T00:52:40;93579.97;;;-1.29;100.00
11053;BME280;55230;42.602;23.470;2023-01-29T00:55:08;93470.69;;;-2.15;100.00
11053;BME280;55230;42.602;23.470;2023-01-29T00:57:37;93561.72;;;-1.51;100.00
11053;BME280;55230;42.602;23.470;2023-01-29T01:00:06;93585.63;;;-1.34;100.00
11053;BME280;55230;42.602;23.470;2023-01-29T01:02:33;93583.72;;;-1.37;100.00
11053;BME280;55230;42.602;23.470;2023-01-29T01:05:18;93536.53;;;-1.92;100.00
11053;BME280;55230;42.602;23.470;2023-01-29T01:07:45;93340.22;;;-3.19;100.00
11053;BME280;55230;42.602;23.470;2023-01-29T01:10:14;93568.53;;;-1.47;100.00
11053;BME280;55230;42.602;23.470;2023-01-29T01:12:48;93286.97;;;-3.38;100.00
11053;BME280;55230;42.602;23.470;2023-01-29T01:15:16;93539.00;;;-1.59;100.00
11053;BME280;55230;42.602;23.470;2023-01-29T01:17:44;93517.78;;;-1.70;100.00
11053;BME280;55230;42.602;23.470;2023-01-29T01:20:11;93544.31;;;-1.56;100.00
11053;BME280;55230;42.602;23.470;2023-01-29T01:22:38;93577.63;;;-1.44;100.00
11053;BME280;55230;42.602;23.470;2023-01-29T01:25:05;93581.41;;;-1.42;100.00
11053;BME280;55230;42.602;23.470;2023-01-29T01:27:32;93554.06;;;-1.67;100.00
11053;BME280;55230;42.602;23.470;2023-01-29T01:30:00;93436.09;;;-2.50;100.00
11053;BME280;55230;42.602;23.470;2023-01-29T01:32:27;93334.16;;;-3.23;100.00
11053;BME280;55230;42.602;23.470;2023-01-29T01:34:53;93389.28;;;-2.60;100.00
11053;BME280;55230;42.602;23.470;2023-01-29T01:37:20;93520.81;;;-1.71;100.00
11053;BME280;55230;42.602;23.470;2023-01-29T01:39:47;93535.16;;;-1.69;100.00
11053;BME280;55230;42.602;23.470;2023-01-29T01:42:14;93349.38;;;-3.06;100.00
11053;BME280;55230;42.602;23.470;2023-01-29T01:44:51;93569.97;;;-1.60;100.00
11053;BME280;55230;42.602;23.470;2023-01-29T01:47:22;93527.38;;;-2.02;100.00
11053;BME280;55230;42.602;23.470;2023-01-29T01:49:50;93586.66;;;-1.49;100.00
11053;BME280;55230;42.602;23.470;2023-01-29T01:52:18;93350.06;;;-3.12;100.00
11053;BME280;55230;42.602;23.470;2023-01-29T01:54:46;93593.84;;;-1.46;100.00
11053;BME280;55230;42.602;23.470;2023-01-29T01:57:16;93590.03;;;-1.52;100.00
11053;BME280;55230;42.602;23.470;2023-01-29T01:59:52;93597.25;;;-1.49;100.00
11053;BME280;55230;42.602;23.470;2023-01-29T02:02:22;93560.78;;;-1.80;100.00
11053;BME280;55230;42.602;23.470;2023-01-29T02:05:07;93597.28;;;-1.42;100.00
11053;BME280;55230;42.602;23.470;2023-01-29T02:07:54;93593.84;;;-1.46;100.00
11053;BME280;55230;42.602;23.470;2023-01-29T02:10:41;93595.72;;;-1.50;100.00
11053;BME280;55230;42.602;23.470;2023-01-29T02:13:09;93589.31;;;-1.49;100.00
11053;BME280;55230;42.602;23.470;2023-01-29T02:15:37;93545.69;;;-1.76;100.00
11053;BME280;55230;42.602;23.470;2023-01-29T02:18:07;93569.91;;;-1.67;100.00
11053;BME280;55230;42.602;23.470;2023-01-29T02:20:34;93578.31;;;-1.54;100.00
11053;BME280;55230;42.602;23.470;2023-01-29T02:23:17;93575.28;;;-1.56;100.00
11053;BME280;55230;42.602;23.470;2023-01-29T02:26:18;93572.25;;;-1.55;100.00
11053;BME280;55230;42.602;23.470;2023-01-29T02:28:52;93569.13;;;-1.71;100.00
11053;BME280;55230;42.602;23.470;2023-01-29T02:31:28;93607.84;;;-1.45;100.00
11053;BME280;55230;42.602;23.470;2023-01-29T02:34:07;93564.88;;;-1.86;100.00
11053;BME280;55230;42.602;23.470;2023-01-29T02:36:42;93625.19;;;-1.48;100.00
11053;BME280;55230;42.602;23.470;2023-01-29T02:39:14;93609.59;;;-1.63;100.00
11053;BME280;55230;42.602;23.470;2023-01-29T02:41:45;93617.63;;;-1.49;100.00
11053;BME280;55230;42.602;23.470;2023-01-29T02:44:22;93550.06;;;-1.97;100.00
11053;BME280;55230;42.602;23.470;2023-01-29T02:46:56;93615.72;;;-1.52;100.00
11053;BME280;55230;42.602;23.470;2023-01-29T02:49:31;93381.72;;;-3.09;100.00
11053;BME280;55230;42.602;23.470;2023-01-29T02:52:02;93596.25;;;-1.81;100.00
11053;BME280;55230;42.602;23.470;2023-01-29T02:54:38;93628.06;;;-1.67;100.00
11053;BME280;55230;42.602;23.470;2023-01-29T02:57:13;93619.06;;;-1.59;100.00
11053;BME280;55230;42.602;23.470;2023-01-29T02:59:47;93624.38;;;-1.52;100.00
11053;BME280;55230;42.602;23.470;2023-01-29T03:02:18;93624.03;;;-1.54;100.00
11053;BME280;55230;42.602;23.470;2023-01-29T03:04:54;93620.63;;;-1.51;100.00
11053;BME280;55230;42.602;23.470;2023-01-29T03:07:26;93659.16;;;-1.50;100.00
11053;BME280;55230;42.602;23.470;2023-01-29T03:10:15;93480.66;;;-2.42;100.00
11053;BME280;55230;42.602;23.470;2023-01-29T03:12:43;93625.50;;;-1.56;100.00
11053;BME280;55230;42.602;23.470;2023-01-29T03:15:19;93622.84;;;-1.56;100.00
11053;BME280;55230;42.602;23.470;2023-01-29T03:17:53;93395.47;;;-3.29;100.00
11053;BME280;55230;42.602;23.470;2023-01-29T03:20:22;93642.09;;;-1.59;100.00
11053;BME280;55230;42.602;23.470;2023-01-29T03:22:54;93653.47;;;-1.52;100.00
11053;BME280;55230;42.602;23.470;2023-01-29T03:25:23;93632.69;;;-1.53;100.00
11053;BME280;55230;42.602;23.470;2023-01-29T03:28:12;93581.88;;;-1.83;100.00
11053;BME280;55230;42.602;23.470;2023-01-29T03:31:01;93555.25;;;-2.11;100.00
11053;BME280;55230;42.602;23.470;2023-01-29T03:33:48;93636.09;;;-1.53;100.00
11053;BME280;55230;42.602;23.470;2023-01-29T03:36:18;93635.03;;;-1.45;100.00
11053;BME280;55230;42.602;23.470;2023-01-29T03:38:46;93406.94;;;-3.11;100.00
11053;BME280;55230;42.602;23.470;2023-01-29T03:41:21;93596.34;;;-1.67;100.00
11053;BME280;55230;42.602;23.470;2023-01-29T03:43:54;93574.69;;;-1.83;100.00
11053;BME280;55230;42.602;23.470;2023-01-29T03:46:26;93630.91;;;-1.39;100.00
11053;BME280;55230;42.602;23.470;2023-01-29T03:48:59;93626.69;;;-1.47;100.00
11053;BME280;55230;42.602;23.470;2023-01-29T03:51:31;93631.59;;;-1.52;100.00
11053;BME280;55230;42.602;23.470;2023-01-29T03:54:06;93583.38;;;-1.86;100.00
11053;BME280;55230;42.602;23.470;2023-01-29T03:56:43;93646.84;;;-1.79;100.00
11053;BME280;55230;42.602;23.470;2023-01-29T03:59:28;93572.06;;;-1.83;100.00
11053;BME280;55230;42.602;23.470;2023-01-29T04:02:02;93541.72;;;-2.03;100.00
11053;BME280;55230;42.602;23.470;2023-01-29T04:04:33;93629.72;;;-1.45;100.00
11053;BME280;55230;42.602;23.470;2023-01-29T04:07:05;93429.81;;;-2.82;100.00
11053;BME280;55230;42.602;23.470;2023-01-29T04:09:40;93629.00;;;-1.45;100.00
11053;BME280;55230;42.602;23.470;2023-01-29T04:12:09;93557.16;;;-2.05;100.00
11053;BME280;55230;42.602;23.470;2023-01-29T04:14:37;93642.53;;;-1.54;100.00
11053;BME280;55230;42.602;23.470;2023-01-29T04:17:09;93636.09;;;-1.53;100.00
11053;BME280;55230;42.602;23.470;2023-01-29T04:19:38;93489.56;;;-2.60;100.00
11053;BME280;55230;42.602;23.470;2023-01-29T04:22:06;93654.63;;;-1.53;100.00
11053;BME280;55230;42.602;23.470;2023-01-29T04:24:38;93639.56;;;-1.45;100.00
11053;BME280;55230;42.602;23.470;2023-01-29T04:27:15;93640.28;;;-1.48;100.00
11053;BME280;55230;42.602;23.470;2023-01-29T04:30:07;93640.22;;;-1.55;100.00
11053;BME280;55230;42.602;23.470;2023-01-29T04:32:52;93555.28;;;-2.04;100.00
11053;BME280;55230;42.602;23.470;2023-01-29T04:35:28;93642.19;;;-1.49;100.00
11053;BME280;55230;42.602;23.470;2023-01-29T04:38:05;93647.13;;;-1.44;100.00
11053;BME280;55230;42.602;23.470;2023-01-29T04:40:40;93648.63;;;-1.43;100.00
11053;BME280;55230;42.602;23.470;2023-01-29T04:43:16;93646.38;;;-1.41;100.00
11053;BME280;55230;42.602;23.470;2023-01-29T04:45:56;93652.06;;;-1.39;100.00
11053;BME280;55230;42.602;23.470;2023-01-29T04:48:29;93653.94;;;-1.43;100.00
11053;BME280;55230;42.602;23.470;2023-01-29T04:51:05;93648.97;;;-1.48;100.00
11053;BME280;55230;42.602;23.470;2023-01-29T04:53:38;93654.22;;;-1.55;100.00
11053;BME280;55230;42.602;23.470;2023-01-29T04:56:17;93651.53;;;-1.58;100.00
11053;BME280;55230;42.602;23.470;2023-01-29T04:58:48;93506.59;;;-2.54;100.00
11053;BME280;55230;42.602;23.470;2023-01-29T05:01:18;93652.31;;;-1.58;100.00
11053;BME280;55230;42.602;23.470;2023-01-29T05:03:49;93651.56;;;-1.55;100.00
11053;BME280;55230;42.602;23.470;2023-01-29T05:06:17;93653.13;;;-1.50;100.00
11053;BME280;55230;42.602;23.470;2023-01-29T05:08:46;93691.28;;;-1.48;100.00
11053;BME280;55230;42.602;23.470;2023-01-29T05:11:15;93653.94;;;-1.43;100.00
11053;BME280;55230;42.602;23.470;2023-01-29T05:13:44;93603.03;;;-1.83;100.00
11053;BME280;55230;42.602;23.470;2023-01-29T05:16:16;93580.22;;;-2.02;100.00
11053;BME280;55230;42.602;23.470;2023-01-29T05:18:45;93384.84;;;-3.36;100.00
11053;BME280;55230;42.602;23.470;2023-01-29T05:21:14;93638.56;;;-1.74;100.00
11053;BME280;55230;42.602;23.470;2023-01-29T05:23:40;93666.69;;;-1.52;100.00
11053;BME280;55230;42.602;23.470;2023-01-29T05:26:23;93672.34;;;-1.53;100.00
11053;BME280;55230;42.602;23.470;2023-01-29T05:29:08;93661.03;;;-1.54;100.00
11053;BME280;55230;42.602;23.470;2023-01-29T05:31:36;93524.69;;;-2.56;100.00
11053;BME280;55230;42.602;23.470;2023-01-29T05:34:03;93533.88;;;-2.40;100.00
11053;BME280;55230;42.602;23.470;2023-01-29T05:36:31;93679.91;;;-1.52;100.00
11053;BME280;55230;42.602;23.470;2023-01-29T05:38:58;93659.44;;;-1.62;100.00
11053;BME280;55230;42.602;23.470;2023-01-29T05:41:24;93597.94;;;-2.06;100.00
11053;BME280;55230;42.602;23.470;2023-01-29T05:43:51;93678.88;;;-1.44;100.00
11053;BME280;55230;42.602;23.470;2023-01-29T05:46:18;93610.81;;;-2.01;100.00
11053;BME280;55230;42.602;23.470;2023-01-29T05:48:44;93624.94;;;-1.79;100.00
11053;BME280;55230;42.602;23.470;2023-01-29T05:51:11;93640.81;;;-1.76;100.00
11053;BME280;55230;42.602;23.470;2023-01-29T05:53:39;93679.22;;;-1.49;100.00
11053;BME280;55230;42.602;23.470;2023-01-29T05:56:06;93443.56;;;-3.03;100.00
11053;BME280;55230;42.602;23.470;2023-01-29T05:58:34;93670.47;;;-1.53;100.00
11053;BME280;55230;42.602;23.470;2023-01-29T06:01:07;93686.47;;;-1.35;100.00
11053;BME280;55230;42.602;23.470;2023-01-29T06:03:34;93697.78;;;-1.42;100.00
11053;BME280;55230;42.602;23.470;2023-01-29T06:06:01;93680.31;;;-1.50;100.00
11053;BME280;55230;42.602;23.470;2023-01-29T06:08:28;93695.91;;;-1.34;100.00
11053;BME280;55230;42.602;23.470;2023-01-29T06:10:56;93674.19;;;-1.61;100.00
11053;BME280;55230;42.602;23.470;2023-01-29T06:13:23;93723.47;;;-1.39;100.00
11053;BME280;55230;42.602;23.470;2023-01-29T06:15:49;93650.28;;;-1.75;100.00
11053;BME280;55230;42.602;23.470;2023-01-29T06:18:16;93638.53;;;-1.81;100.00
11053;BME280;55230;42.602;23.470;2023-01-29T06:20:43;93774.50;;;-1.38;100.00
11053;BME280;55230;42.602;23.470;2023-01-29T06:23:10;93644.53;;;-1.84;100.00
11053;BME280;55230;42.602;23.470;2023-01-29T06:25:37;93726.63;;;-1.23;100.00
11053;BME280;55230;42.602;23.470;2023-01-29T06:28:05;93725.00;;;-1.34;100.00
11053;BME280;55230;42.602;23.470;2023-01-29T06:30:32;93648.41;;;-1.71;100.00
11053;BME280;55230;42.602;23.470;2023-01-29T06:32:58;93661.97;;;-1.76;100.00
11053;BME280;55230;42.602;23.470;2023-01-29T06:35:26;93728.19;;;-1.14;100.00
11053;BME280;55230;42.602;23.470;2023-01-29T06:37:53;93700.09;;;-1.33;100.00
11053;BME280;55230;42.602;23.470;2023-01-29T06:40:20;93707.56;;;-1.46;100.00
11053;BME280;55230;42.602;23.470;2023-01-29T06:42:46;93736.59;;;-1.05;100.00
11053;BME280;55230;42.602;23.470;2023-01-29T06:45:15;93588.50;;;-2.03;100.00
11053;BME280;55230;42.602;23.470;2023-01-29T06:47:41;93732.56;;;-1.33;100.00
11053;BME280;55230;42.602;23.470;2023-01-29T06:50:09;93709.69;;;-1.14;100.00
11053;BME280;55230;42.602;23.470;2023-01-29T06:52:36;93747.28;;;-0.88;100.00
11053;BME280;55230;42.602;23.470;2023-01-29T06:55:04;93766.97;;;-0.85;100.00
11053;BME280;55230;42.602;23.470;2023-01-29T06:57:30;93414.31;;;-3.27;100.00
11053;BME280;55230;42.602;23.470;2023-01-29T06:59:57;93747.25;;;-0.91;100.00
11053;BME280;55230;42.602;23.470;2023-01-29T07:02:25;93749.56;;;-0.86;100.00
11053;BME280;55230;42.602;23.470;2023-01-29T07:04:52;93383.38;;;-3.34;100.00
11053;BME280;55230;42.602;23.470;2023-01-29T07:07:19;93720.75;;;-0.98;100.00
11053;BME280;55230;42.602;23.470;2023-01-29T07:09:45;93745.94;;;-0.64;100.00
11053;BME280;55230;42.602;23.470;2023-01-29T07:12:12;93760.94;;;-0.79;100.00
11053;BME280;55230;42.602;23.470;2023-01-29T07:14:39;93644.09;;;-1.46;100.00
11053;BME280;55230;42.602;23.470;2023-01-29T07:17:06;93755.81;;;-0.54;100.00
11053;BME280;55230;42.602;23.470;2023-01-29T07:19:34;93682.88;;;-1.09;100.00
11053;BME280;55230;42.602;23.470;2023-01-29T07:22:01;93616.06;;;-1.57;100.00
11053;BME280;55230;42.602;23.470;2023-01-29T07:24:28;93596.44;;;-1.53;100.00
11053;BME280;55230;42.602;23.470;2023-01-29T07:26:55;93784.69;;;-0.32;100.00
11053;BME280;55230;42.602;23.470;2023-01-29T07:29:21;93802.09;;;-0.34;100.00
11053;BME280;55230;42.602;23.470;2023-01-29T07:31:48;93613.78;;;-1.55;100.00
11053;BME280;55230;42.602;23.470;2023-01-29T07:34:15;93781.50;;;-0.58;100.00
11053;BME280;55230;42.602;23.470;2023-01-29T07:36:43;93797.03;;;-0.53;100.00
11053;BME280;55230;42.602;23.470;2023-01-29T07:39:10;93774.66;;;-0.66;100.00
11053;BME280;55230;42.602;23.470;2023-01-29T07:41:37;93764.84;;;-0.66;100.00
11053;BME280;55230;42.602;23.470;2023-01-29T07:44:04;93770.81;;;-0.72;100.00
11053;BME280;55230;42.602;23.470;2023-01-29T07:46:30;93785.31;;;-0.56;100.00
11053;BME280;55230;42.602;23.470;2023-01-29T07:48:57;93663.78;;;-1.36;100.00
11053;BME280;55230;42.602;23.470;2023-01-29T07:51:24;93738.28;;;-0.80;100.00
11053;BME280;55230;42.602;23.470;2023-01-29T07:53:52;93767.81;;;-0.74;100.00
11053;BME280;55230;42.602;23.470;2023-01-29T07:56:19;93769.00;;;-0.65;100.00
11053;BME280;55230;42.602;23.470;2023-01-29T07:58:45;93788.75;;;-0.48;100.00
11053;BME280;55230;42.602;23.470;2023-01-29T08:01:12;93789.16;;;-0.43;100.00
11053;BME280;55230;42.602;23.470;2023-01-29T08:03:39;93795.97;;;-0.49;100.00
11053;BME280;55230;42.602;23.470;2023-01-29T08:06:06;93764.75;;;-0.76;100.00
11053;BME280;55230;42.602;23.470;2023-01-29T08:08:33;93766.44;;;-0.47;100.00
11053;BME280;55230;42.602;23.470;2023-01-29T08:11:01;93758.03;;;-0.63;100.00
11053;BME280;55230;42.602;23.470;2023-01-29T08:13:28;93790.78;;;-0.21;100.00
11053;BME280;55230;42.602;23.470;2023-01-29T08:15:58;93798.38;;;-0.23;100.00
11053;BME280;55230;42.602;23.470;2023-01-29T08:18:25;93623.09;;;-1.21;100.00
11053;BME280;55230;42.602;23.470;2023-01-29T08:20:51;93742.25;;;-0.42;100.00
11053;BME280;55230;42.602;23.470;2023-01-29T08:23:18;93795.47;;;0.07;100.00
11053;BME280;55230;42.602;23.470;2023-01-29T08:25:45;93715.78;;;-0.42;100.00
11053;BME280;55230;42.602;23.470;2023-01-29T08:28:13;93804.22;;;0.18;100.00
11053;BME280;55230;42.602;23.470;2023-01-29T08:30:40;93806.09;;;0.11;100.00
11053;BME280;55230;42.602;23.470;2023-01-29T08:33:08;93710.28;;;-0.77;100.00
11053;BME280;55230;42.602;23.470;2023-01-29T08:35:35;93821.94;;;-0.07;100.00
11053;BME280;55230;42.602;23.470;2023-01-29T08:38:03;93811.75;;;0.06;100.00
11053;BME280;55230;42.602;23.470;2023-01-29T08:40:32;93796.47;;;-0.22;100.00
11053;BME280;55230;42.602;23.470;2023-01-29T08:42:59;93816.72;;;0.21;100.00
11053;BME280;55230;42.602;23.470;2023-01-29T08:45:27;93757.47;;;-0.25;100.00
11053;BME280;55230;42.602;23.470;2023-01-29T08:47:54;93709.69;;;-0.46;100.00
11053;BME280;55230;42.602;23.470;2023-01-29T08:50:21;93716.47;;;-0.56;100.00
11053;BME280;55230;42.602;23.470;2023-01-29T08:52:48;93835.72;;;0.30;100.00
11053;BME280;55230;42.602;23.470;2023-01-29T08:55:14;93733.88;;;-0.51;100.00
11053;BME280;55230;42.602;23.470;2023-01-29T08:57:41;93652.28;;;-1.10;100.00
11053;BME280;55230;42.602;23.470;2023-01-29T09:00:09;93534.03;;;-2.22;100.00
11053;BME280;55230;42.602;23.470;2023-01-29T09:02:37;93835.50;;;-0.12;100.00
11053;BME280;55230;42.602;23.470;2023-01-29T09:05:05;93669.56;;;-1.20;100.00
11053;BME280;55230;42.602;23.470;2023-01-29T09:07:32;93814.97;;;-0.29;100.00
11053;BME280;55230;42.602;23.470;2023-01-29T09:09:59;93842.31;;;-0.18;100.00
11053;BME280;55230;42.602;23.470;2023-01-29T09:12:26;93824.09;;;-0.23;100.00
11053;BME280;55230;42.602;23.470;2023-01-29T09:14:52;93851.50;;;0.06;100.00
11053;BME280;55230;42.602;23.470;2023-01-29T09:17:19;93833.03;;;0.23;100.00
11053;BME280;55230;42.602;23.470;2023-01-29T09:19:47;93783.19;;;-0.29;100.00
11053;BME280;55230;42.602;23.470;2023-01-29T09:22:16;93775.97;;;-0.32;100.00
11053;BME280;55230;42.602;23.470;2023-01-29T09:24:43;93527.94;;;-1.79;100.00
11053;BME280;55230;42.602;23.470;2023-01-29T09:27:10;93786.63;;;-0.25;100.00
11053;BME280;55230;42.602;23.470;2023-01-29T09:29:37;93828.88;;;0.22;100.00
11053;BME280;55230;42.602;23.470;2023-01-29T09:32:04;93680.75;;;-0.86;100.00
11053;BME280;55230;42.602;23.470;2023-01-29T09:34:31;93826.91;;;0.05;100.00
11053;BME280;55230;42.602;23.470;2023-01-29T09:36:59;93796.16;;;-0.10;100.00
11053;BME280;55230;42.602;23.470;2023-01-29T09:39:26;93810.59;;;-0.04;100.00
11053;BME280;55230;42.602;23.470;2023-01-29T09:41:58;93862.81;;;-0.08;100.00
11053;BME280;55230;42.602;23.470;2023-01-29T09:44:45;93837.88;;;0.07;100.00
11053;BME280;55230;42.602;23.470;2023-01-29T09:47:15;93757.03;;;-0.38;100.00
11053;BME280;55230;42.602;23.470;2023-01-29T09:49:46;93782.91;;;-0.10;100.00
11053;BME280;55230;42.602;23.470;2023-01-29T09:52:19;93641.44;;;-0.81;100.00
11053;BME280;55230;42.602;23.470;2023-01-29T09:54:53;93799.34;;;0.27;100.00
11053;BME280;55230;42.602;23.470;2023-01-29T09:57:24;93783.78;;;0.15;100.00
11053;BME280;55230;42.602;23.470;2023-01-29T09:59:53;93816.06;;;0.49;100.00
11053;BME280;55230;42.602;23.470;2023-01-29T10:02:43;93800.88;;;0.32;100.00
11053;BME280;55230;42.602;23.470;2023-01-29T10:05:29;93659.28;;;-0.64;100.00
11053;BME280;55230;42.602;23.470;2023-01-29T10:08:21;93789.50;;;0.24;100.00
11053;BME280;55230;42.602;23.470;2023-01-29T10:10:54;93791.38;;;0.20;100.00
11053;BME280;55230;42.602;23.470;2023-01-29T10:13:28;93813.00;;;0.29;100.00
11053;BME280;55230;42.602;23.470;2023-01-29T10:16:09;93805.00;;;0.22;100.00
11053;BME280;55230;42.602;23.470;2023-01-29T10:18:59;93818.66;;;0.31;100.00
11053;BME280;55230;42.602;23.470;2023-01-29T10:21:43;93807.63;;;0.15;100.00
11053;BME280;55230;42.602;23.470;2023-01-29T10:24:23;93725.09;;;-0.69;100.00
11053;BME280;55230;42.602;23.470;2023-01-29T10:26:52;93782.56;;;0.02;100.00
11053;BME280;55230;42.602;23.470;2023-01-29T10:29:19;93416.97;;;-2.40;100.00
11053;BME280;55230;42.602;23.470;2023-01-29T10:31:49;93567.88;;;-1.30;100.00
11053;BME280;55230;42.602;23.470;2023-01-29T10:34:22;93707.44;;;-0.44;100.00
11053;BME280;55230;42.602;23.470;2023-01-29T10:36:52;93599.03;;;-0.91;100.00
11053;BME280;55230;42.602;23.470;2023-01-29T10:39:23;93736.75;;;-0.02;100.00
11053;BME280;55230;42.602;23.470;2023-01-29T10:42:03;93789.88;;;0.33;100.00
11053;BME280;55230;42.602;23.470;2023-01-29T10:44:41;93425.09;;;-2.05;100.00
11053;BME280;55230;42.602;23.470;2023-01-29T10:47:33;93760.63;;;0.05;100.00
11053;BME280;55230;42.602;23.470;2023-01-29T10:50:18;93630.16;;;-0.74;100.00
11053;BME280;55230;42.602;23.470;2023-01-29T10:56:14;93804.59;;;0.13;100.00
11053;BME280;55230;42.602;23.470;2023-01-29T10:58:48;93537.94;;;-1.48;100.00
11053;BME280;55230;42.602;23.470;2023-01-29T11:01:16;93788.75;;;0.31;100.00
11053;BME280;55230;42.602;23.470;2023-01-29T11:03:43;93511.44;;;-1.55;100.00
11053;BME280;55230;42.602;23.470;2023-01-29T11:06:15;93772.84;;;0.34;100.00
11053;BME280;55230;42.602;23.470;2023-01-29T11:08:47;93772.38;;;0.11;100.00
11053;BME280;55230;42.602;23.470;2023-01-29T11:11:18;93423.81;;;-2.32;100.00
11053;BME280;55230;42.602;23.470;2023-01-29T11:13:52;93725.31;;;-0.20;100.00
11053;BME280;55230;42.602;23.470;2023-01-29T11:16:21;93581.31;;;-1.56;100.00
11053;BME280;55230;42.602;23.470;2023-01-29T11:18:56;93765.97;;;0.12;100.00
11053;BME280;55230;42.602;23.470;2023-01-29T11:21:24;93808.41;;;0.23;100.00
11053;BME280;55230;42.602;23.470;2023-01-29T11:24:05;93688.97;;;-0.23;100.00
11053;BME280;55230;42.602;23.470;2023-01-29T11:26:45;93745.50;;;0.16;100.00
11053;BME280;55230;42.602;23.470;2023-01-29T11:29:29;93576.94;;;-1.27;100.00
11053;BME280;55230;42.602;23.470;2023-01-29T11:31:58;93755.41;;;0.40;100.00
11053;BME280;55230;42.602;23.470;2023-01-29T11:34:26;93730.44;;;0.41;100.00
11053;BME280;55230;42.602;23.470;2023-01-29T11:36:56;93642.81;;;-0.19;100.00
11053;BME280;55230;42.602;23.470;2023-01-29T11:39:24;93739.94;;;0.77;100.00
11053;BME280;55230;42.602;23.470;2023-01-29T11:41:55;93686.84;;;0.42;100.00
11053;BME280;55230;42.602;23.470;2023-01-29T11:44:29;93721.38;;;0.91;100.00
11053;BME280;55230;42.602;23.470;2023-01-29T11:47:10;93766.88;;;1.07;100.00
11053;BME280;55230;42.602;23.470;2023-01-29T11:49:39;93558.44;;;0.36;100.00
11053;BME280;55230;42.602;23.470;2023-01-29T11:52:17;93769.38;;;1.95;100.00
11053;BME280;55230;42.602;23.470;2023-01-29T11:54:49;93719.81;;;1.33;100.00
11053;BME280;55230;42.602;23.470;2023-01-29T11:57:26;93749.34;;;1.63;100.00
11053;BME280;55230;42.602;23.470;2023-01-29T11:59:55;93379.78;;;-0.61;100.00
11053;BME280;55230;42.602;23.470;2023-01-29T12:02:27;93740.94;;;1.75;100.00
11053;BME280;55230;42.602;23.470;2023-01-29T12:05:00;93716.38;;;1.43;100.00
11053;BME280;55230;42.602;23.470;2023-01-29T12:07:29;93669.38;;;1.18;100.00
11053;BME280;55230;42.602;23.470;2023-01-29T12:10:01;93727.91;;;2.12;100.00
11053;BME280;55230;42.602;23.470;2023-01-29T12:12:34;93311.75;;;-0.92;98.37
11053;BME280;55230;42.602;23.470;2023-01-29T12:15:15;93726.19;;;2.46;97.17
11053;BME280;55230;42.602;23.470;2023-01-29T12:17:48;93304.19;;;-1.08;95.57
11053;BME280;55230;42.602;23.470;2023-01-29T12:20:19;93714.38;;;1.75;97.38
11053;BME280;55230;42.602;23.470;2023-01-29T12:22:54;93448.66;;;-0.40;97.33
11053;BME280;55230;42.602;23.470;2023-01-29T12:25:34;93536.44;;;0.32;100.00
11053;BME280;55230;42.602;23.470;2023-01-29T12:28:14;93727.41;;;1.34;100.00
11053;BME280;55230;42.602;23.470;2023-01-29T12:30:53;93656.91;;;0.59;100.00
11053;BME280;55230;42.602;23.470;2023-01-29T12:33:29;93730.47;;;0.97;100.00
11053;BME280;55230;42.602;23.470;2023-01-29T12:36:09;93670.94;;;0.39;100.00
11053;BME280;55230;42.602;23.470;2023-01-29T12:38:38;93559.88;;;-0.51;100.00
11053;BME280;55230;42.602;23.470;2023-01-29T12:41:10;93782.03;;;0.89;100.00
11053;BME280;55230;42.602;23.470;2023-01-29T12:43:51;93596.25;;;-0.27;100.00
11053;BME280;55230;42.602;23.470;2023-01-29T12:46:21;93344.03;;;-1.94;100.00
11053;BME280;55230;42.602;23.470;2023-01-29T12:48:52;93729.31;;;0.70;100.00
11053;BME280;55230;42.602;23.470;2023-01-29T12:51:23;93671.31;;;0.34;100.00
11053;BME280;55230;42.602;23.470;2023-01-29T12:53:55;93664.84;;;0.31;100.00
11053;BME280;55230;42.602;23.470;2023-01-29T12:56:28;93735.00;;;0.86;100.00
11053;BME280;55230;42.602;23.470;2023-01-29T12:59:00;93733.50;;;1.06;100.00
11053;BME280;55230;42.602;23.470;2023-01-29T13:01:32;93706.94;;;0.99;100.00
11053;BME280;55230;42.602;23.470;2023-01-29T13:04:05;93725.13;;;1.26;100.00
11053;BME280;55230;42.602;23.470;2023-01-29T13:06:37;93771.78;;;0.98;100.00